createdAt,value
2017-06-04T00:01:21.157Z,100755
2017-06-04T00:03:49.333Z,100756
2017-06-04T00:06:17.518Z,100753
2017-06-04T00:08:45.690Z,100750
2017-06-04T00:11:13.851Z,100757
2017-06-04T00:13:42.062Z,100753
2017-06-04T00:16:10.996Z,100750
2017-06-04T00:18:39.172Z,100750
2017-06-04T00:21:07.349Z,100751
2017-06-04T00:23:35.527Z,100743
2017-06-04T00:26:03.680Z,100749
2017-06-04T00:28:31.870Z,100736
2017-06-04T00:31:00.046Z,100737
2017-06-04T00:33:28.197Z,100738
2017-06-04T00:35:56.411Z,100734
2017-06-04T00:38:24.591Z,100729
2017-06-04T00:40:52.768Z,100738
2017-06-04T00:43:20.947Z,100739
2017-06-04T00:45:49.110Z,100739
2017-06-04T00:48:17.290Z,100734
2017-06-04T00:50:45.470Z,100739
2017-06-04T00:53:13.632Z,100734
2017-06-04T00:55:41.813Z,100739
2017-06-04T00:58:10.169Z,100740
2017-06-04T01:00:38.326Z,100733
2017-06-04T01:03:06.473Z,100745
2017-06-04T01:05:35.438Z,100739
2017-06-04T01:08:03.602Z,100739
2017-06-04T01:10:31.781Z,100746
2017-06-04T01:12:59.997Z,100751
2017-06-04T01:15:28.944Z,100746
2017-06-04T01:17:57.115Z,100751
2017-06-04T01:20:25.320Z,100743
2017-06-04T01:22:53.471Z,100739
2017-06-04T01:25:21.624Z,100736
2017-06-04T01:27:49.941Z,100740
2017-06-04T01:30:18.130Z,100734
2017-06-04T01:32:47.077Z,100736
2017-06-04T01:35:15.281Z,100722
2017-06-04T01:37:43.452Z,100721
2017-06-04T01:40:11.618Z,100724
2017-06-04T01:42:39.801Z,100734
2017-06-04T01:45:07.969Z,100737
2017-06-04T01:47:36.152Z,100739
2017-06-04T01:50:04.360Z,100741
2017-06-04T01:52:33.293Z,100744
2017-06-04T01:55:01.449Z,100749
2017-06-04T01:57:29.667Z,100740
2017-06-04T01:59:57.851Z,100733
2017-06-04T02:02:26.010Z,100726
2017-06-04T02:04:54.232Z,100719
2017-06-04T02:07:22.393Z,100710
2017-06-04T02:09:50.554Z,100714
2017-06-04T02:12:18.742Z,100714
2017-06-04T02:14:46.911Z,100714
2017-06-04T02:17:15.838Z,100715
2017-06-04T02:19:44.040Z,100724
2017-06-04T02:22:12.199Z,100722
2017-06-04T02:24:40.378Z,100725
2017-06-04T02:27:08.567Z,100720
2017-06-04T02:29:36.728Z,100727
2017-06-04T02:32:04.878Z,100731
2017-06-04T02:34:33.102Z,100728
2017-06-04T02:37:01.281Z,100732
2017-06-04T02:39:29.451Z,100734
2017-06-04T02:41:57.665Z,100743
2017-06-04T02:44:26.605Z,100747
2017-06-04T02:46:54.782Z,100744
2017-06-04T02:49:22.987Z,100744
2017-06-04T02:51:51.165Z,100742
2017-06-04T02:54:20.123Z,100742
2017-06-04T02:56:48.328Z,100743
2017-06-04T02:59:16.478Z,100750
2017-06-04T03:01:44.645Z,100749
2017-06-04T03:04:12.857Z,100742
2017-06-04T03:06:41.782Z,100742
2017-06-04T03:09:09.934Z,100746
2017-06-04T03:11:38.926Z,100741
2017-06-04T03:14:07.867Z,100745
2017-06-04T03:16:36.019Z,100738
2017-06-04T03:19:04.203Z,100740
2017-06-04T03:21:32.374Z,100748
2017-06-04T03:24:00.532Z,100744
2017-06-04T03:26:28.710Z,100746
2017-06-04T03:28:56.861Z,100738
2017-06-04T03:31:25.784Z,100743
2017-06-04T03:33:54.321Z,100753
2017-06-04T03:36:22.477Z,100745
2017-06-04T03:38:50.636Z,100742
2017-06-04T03:41:18.837Z,100748
2017-06-04T03:43:46.998Z,100736
2017-06-04T03:46:15.176Z,100742
2017-06-04T03:48:43.359Z,100738
2017-06-04T03:51:11.544Z,100737
2017-06-04T03:53:39.706Z,100737
2017-06-04T03:56:07.911Z,100744
2017-06-04T03:58:36.905Z,100732
2017-06-04T04:01:05.847Z,100740
2017-06-04T04:03:34.390Z,100731
2017-06-04T04:06:03.325Z,100737
2017-06-04T04:08:31.506Z,100734
2017-06-04T04:10:59.687Z,100739
2017-06-04T04:13:27.864Z,100746
2017-06-04T04:15:56.043Z,100739
2017-06-04T04:18:24.226Z,100743
2017-06-04T04:20:52.382Z,100745
2017-06-04T04:23:20.546Z,100749
2017-06-04T04:25:48.744Z,100744
2017-06-04T04:28:16.905Z,100743
2017-06-04T04:30:45.082Z,100742
2017-06-04T04:33:13.289Z,100749
2017-06-04T04:35:41.463Z,100749
2017-06-04T04:38:10.385Z,100739
2017-06-04T04:40:38.590Z,100749
2017-06-04T04:43:06.785Z,100748
2017-06-04T04:45:34.938Z,100756
2017-06-04T04:48:03.132Z,100756
2017-06-04T04:50:31.287Z,100756
2017-06-04T04:52:59.464Z,100758
2017-06-04T04:55:27.649Z,100760
2017-06-04T04:57:55.820Z,100758
2017-06-04T05:00:23.980Z,100757
2017-06-04T05:02:52.181Z,100752
2017-06-04T05:05:20.343Z,100755
2017-06-04T05:07:48.496Z,100756
2017-06-04T05:10:16.702Z,100756
2017-06-04T05:12:44.892Z,100761
2017-06-04T05:15:13.098Z,100766
2017-06-04T05:17:41.309Z,100760
2017-06-04T05:20:09.493Z,100759
2017-06-04T05:22:37.649Z,100761
2017-06-04T05:25:05.829Z,100756
2017-06-04T05:27:39.588Z,100763
2017-06-04T05:30:08.552Z,100758
2017-06-04T05:32:36.707Z,100765
2017-06-04T05:35:04.873Z,100767
2017-06-04T05:37:33.056Z,100773
2017-06-04T05:40:01.212Z,100772
2017-06-04T05:42:29.384Z,100768
2017-06-04T05:44:57.583Z,100781
2017-06-04T05:47:25.743Z,100779
2017-06-04T05:49:53.897Z,100777
2017-06-04T05:52:22.100Z,100783
2017-06-04T05:54:50.273Z,100780
2017-06-04T05:57:18.431Z,100785
2017-06-04T05:59:46.614Z,100795
2017-06-04T06:02:14.794Z,100787
2017-06-04T06:04:42.953Z,100782
2017-06-04T06:07:11.137Z,100787
2017-06-04T06:09:39.314Z,100785
2017-06-04T06:12:07.489Z,100786
2017-06-04T06:14:35.677Z,100794
2017-06-04T06:17:03.853Z,100798
2017-06-04T06:19:32.031Z,100794
2017-06-04T06:22:00.230Z,100794
2017-06-04T06:24:28.414Z,100799
2017-06-04T06:26:57.355Z,100799
2017-06-04T06:29:25.550Z,100803
2017-06-04T06:31:53.727Z,100810
2017-06-04T06:34:21.898Z,100809
2017-06-04T06:36:50.108Z,100813
2017-06-04T06:39:18.285Z,100812
2017-06-04T06:41:47.279Z,100813
2017-06-04T06:44:15.482Z,100806
2017-06-04T06:46:43.661Z,100806
2017-06-04T06:49:11.810Z,100816
2017-06-04T06:51:40.019Z,100817
2017-06-04T06:54:08.206Z,100816
2017-06-04T06:56:36.382Z,100814
2017-06-04T06:59:04.601Z,100819
2017-06-04T07:01:32.750Z,100831
2017-06-04T07:04:01.675Z,100827
2017-06-04T07:06:29.877Z,100844
2017-06-04T07:08:58.136Z,100839
2017-06-04T07:11:26.294Z,100838
2017-06-04T07:13:54.506Z,100844
2017-06-04T07:16:22.672Z,100835
2017-06-04T07:18:50.830Z,100828
2017-06-04T07:21:19.036Z,100837
2017-06-04T07:23:47.196Z,100845
2017-06-04T07:26:15.353Z,100850
2017-06-04T07:28:43.563Z,100837
2017-06-04T07:31:12.525Z,100847
2017-06-04T07:33:40.683Z,100843
2017-06-04T07:36:08.926Z,100834
2017-06-04T07:38:37.107Z,100845
2017-06-04T07:41:05.271Z,100846
2017-06-04T07:43:34.251Z,100837
2017-06-04T07:46:03.199Z,100846
2017-06-04T07:48:31.365Z,100848
2017-06-04T07:50:59.553Z,100853
2017-06-04T07:53:27.893Z,100848
2017-06-04T07:55:56.053Z,100849
2017-06-04T07:58:25.010Z,100854
2017-06-04T08:00:53.164Z,100851
2017-06-04T08:03:22.019Z,100848
2017-06-04T08:05:54.791Z,100852
2017-06-04T08:08:23.061Z,100844
2017-06-04T08:10:51.230Z,100860
2017-06-04T08:13:19.439Z,100855
2017-06-04T08:15:47.610Z,100853
2017-06-04T08:18:15.790Z,100849
2017-06-04T08:20:43.991Z,100853
2017-06-04T08:23:12.946Z,100856
2017-06-04T08:25:41.095Z,100856
2017-06-04T08:28:09.325Z,100853
2017-06-04T08:30:37.481Z,100862
2017-06-04T08:33:05.656Z,100857
2017-06-04T08:35:34.248Z,100859
2017-06-04T08:38:02.434Z,100854
2017-06-04T08:40:30.636Z,100849
2017-06-04T08:42:58.846Z,100849
2017-06-04T08:45:27.023Z,100849
2017-06-04T08:47:55.174Z,100844
2017-06-04T08:50:23.361Z,100845
2017-06-04T08:52:51.513Z,100851
2017-06-04T08:55:19.669Z,100839
2017-06-04T08:57:48.618Z,100858
2017-06-04T09:00:16.778Z,100848
2017-06-04T09:02:44.937Z,100855
2017-06-04T09:05:13.130Z,100858
2017-06-04T09:07:41.301Z,100868
2017-06-04T09:10:09.459Z,100863
2017-06-04T09:12:37.664Z,100859
2017-06-04T09:15:05.820Z,100853
2017-06-04T09:17:33.996Z,100861
2017-06-04T09:20:02.202Z,100863
2017-06-04T09:22:30.366Z,100860
2017-06-04T09:24:58.536Z,100859
2017-06-04T09:27:26.721Z,100862
2017-06-04T09:29:54.900Z,100864
2017-06-04T09:32:23.073Z,100867
2017-06-04T09:34:51.269Z,100862
2017-06-04T09:37:19.419Z,100865
2017-06-04T09:39:47.601Z,100864
2017-06-04T09:42:15.790Z,100866
2017-06-04T09:44:43.964Z,100871
2017-06-04T09:47:12.122Z,100868
2017-06-04T09:49:40.341Z,100870
2017-06-04T09:52:09.261Z,100869
2017-06-04T09:54:37.413Z,100883
2017-06-04T09:57:05.633Z,100879
2017-06-04T09:59:33.790Z,100886
2017-06-04T10:02:01.964Z,100890
2017-06-04T10:04:30.272Z,100903
2017-06-04T10:06:58.421Z,100903
2017-06-04T10:09:26.582Z,100909
2017-06-04T10:11:54.766Z,100910
2017-06-04T10:14:22.948Z,100912
2017-06-04T10:16:51.124Z,100906
2017-06-04T10:19:19.326Z,100909
2017-06-04T10:21:47.493Z,100905
2017-06-04T10:24:15.662Z,100907
2017-06-04T10:26:43.845Z,100911
2017-06-04T10:29:12.027Z,100916
2017-06-04T10:31:40.198Z,100909
2017-06-04T10:34:08.382Z,100922
2017-06-04T10:36:36.560Z,100923
2017-06-04T10:39:04.710Z,100918
2017-06-04T10:41:32.912Z,100931
2017-06-04T10:44:01.833Z,100943
2017-06-04T10:46:30.010Z,100949
2017-06-04T10:48:58.194Z,100949
2017-06-04T10:51:26.372Z,100935
2017-06-04T10:53:54.522Z,100935
2017-06-04T10:56:22.730Z,100950
2017-06-04T10:58:50.895Z,100945
2017-06-04T11:01:19.060Z,100949
2017-06-04T11:03:47.246Z,100951
2017-06-04T11:06:15.398Z,100947
2017-06-04T11:08:43.584Z,100942
2017-06-04T11:11:11.789Z,100937
2017-06-04T11:13:39.952Z,100945
2017-06-04T11:16:08.099Z,100941
2017-06-04T11:18:36.301Z,100940
2017-06-04T11:21:04.478Z,100950
2017-06-04T11:23:32.633Z,100933
2017-06-04T11:26:00.813Z,100932
2017-06-04T11:28:28.970Z,100942
2017-06-04T11:30:57.125Z,100942
2017-06-04T11:33:26.093Z,100945
2017-06-04T11:35:54.241Z,100955
2017-06-04T11:38:22.409Z,100952
2017-06-04T11:40:50.591Z,100952
2017-06-04T11:43:18.756Z,100953
2017-06-04T11:45:46.898Z,100938
2017-06-04T11:48:15.865Z,100953
2017-06-04T11:50:44.034Z,100956
2017-06-04T11:53:12.201Z,100963
2017-06-04T11:55:40.387Z,100971
2017-06-04T11:58:08.558Z,100964
2017-06-04T12:00:36.706Z,100972
2017-06-04T12:03:04.905Z,100979
2017-06-04T12:05:33.059Z,100979
2017-06-04T12:08:01.211Z,100975
2017-06-04T12:10:29.390Z,100983
2017-06-04T12:12:57.566Z,100971
2017-06-04T12:15:25.718Z,100990
2017-06-04T12:17:53.916Z,100985
2017-06-04T12:20:22.188Z,100980
2017-06-04T12:22:50.340Z,100988
2017-06-04T12:25:19.290Z,100992
2017-06-04T12:27:47.603Z,100996
2017-06-04T12:30:15.762Z,101000
2017-06-04T12:32:43.945Z,101004
2017-06-04T12:35:12.866Z,101004
2017-06-04T12:37:41.041Z,101005
2017-06-04T12:40:09.224Z,101001
2017-06-04T12:42:37.392Z,100998
2017-06-04T12:45:05.561Z,101019
2017-06-04T12:47:33.744Z,101011
2017-06-04T12:50:01.899Z,101016
2017-06-04T12:52:30.833Z,101017
2017-06-04T12:54:59.036Z,101009
2017-06-04T12:57:27.201Z,101019
2017-06-04T12:59:55.353Z,101024
2017-06-04T13:02:23.878Z,101024
2017-06-04T13:04:52.029Z,101012
2017-06-04T13:07:20.179Z,101023
2017-06-04T13:09:48.361Z,101039
2017-06-04T13:12:16.529Z,101033
2017-06-04T13:14:44.701Z,101034
2017-06-04T13:17:12.907Z,101030
2017-06-04T13:19:41.082Z,101026
2017-06-04T13:22:09.234Z,101028
2017-06-04T13:24:37.451Z,101047
2017-06-04T13:27:05.628Z,101038
2017-06-04T13:29:33.774Z,101039
2017-06-04T13:32:01.985Z,101042
2017-06-04T13:34:30.917Z,101035
2017-06-04T13:36:59.089Z,101041
2017-06-04T13:39:27.273Z,101043
2017-06-04T13:41:55.440Z,101043
2017-06-04T13:44:23.604Z,101047
2017-06-04T13:46:51.803Z,101040
2017-06-04T13:49:19.973Z,101039
2017-06-04T13:51:48.139Z,101048
2017-06-04T13:54:16.328Z,101045
2017-06-04T13:56:44.494Z,101049
2017-06-04T13:59:12.656Z,101052
2017-06-04T14:01:40.851Z,101053
2017-06-04T14:04:08.999Z,101058
2017-06-04T14:06:37.158Z,101062
2017-06-04T14:09:05.342Z,101052
2017-06-04T14:11:33.519Z,101060
2017-06-04T14:14:01.690Z,101066
2017-06-04T14:16:29.877Z,101057
2017-06-04T14:18:58.048Z,101059
2017-06-04T14:21:26.208Z,101072
2017-06-04T14:23:54.390Z,101067
2017-06-04T14:26:22.542Z,101064
2017-06-04T14:28:51.466Z,101063
2017-06-04T14:31:19.645Z,101053
2017-06-04T14:33:47.816Z,101060
2017-06-04T14:36:16.107Z,101059
2017-06-04T14:38:44.289Z,101053
2017-06-04T14:41:12.435Z,101052
2017-06-04T14:43:40.617Z,101055
2017-06-04T14:46:08.791Z,101065
2017-06-04T14:48:36.968Z,101041
2017-06-04T14:51:05.118Z,101058
2017-06-04T14:53:34.089Z,101059
2017-06-04T14:56:02.264Z,101056
2017-06-04T14:58:30.435Z,101059
2017-06-04T15:00:58.658Z,101056
2017-06-04T15:03:26.878Z,101063
2017-06-04T15:05:55.071Z,101065
2017-06-04T15:08:23.282Z,101058
2017-06-04T15:10:51.454Z,101055
2017-06-04T15:13:19.631Z,101066
2017-06-04T15:15:47.828Z,101058
2017-06-04T15:18:16.009Z,101064
2017-06-04T15:20:44.166Z,101071
2017-06-04T15:23:12.379Z,101060
2017-06-04T15:25:41.310Z,101067
2017-06-04T15:28:09.474Z,101066
2017-06-04T15:30:37.674Z,101072
2017-06-04T15:33:05.823Z,101076
2017-06-04T15:35:34.773Z,101080
2017-06-04T15:38:03.728Z,101072
2017-06-04T15:40:31.893Z,101080
2017-06-04T15:43:00.064Z,101068
2017-06-04T15:45:28.266Z,101072
2017-06-04T15:47:56.445Z,101073
2017-06-04T15:50:25.385Z,101077
2017-06-04T15:52:53.577Z,101078
2017-06-04T15:55:21.726Z,101070
2017-06-04T15:57:50.147Z,101075
2017-06-04T16:00:18.330Z,101073
2017-06-04T16:02:47.274Z,101072
2017-06-04T16:05:15.496Z,101072
2017-06-04T16:07:43.700Z,101069
2017-06-04T16:10:11.914Z,101080
2017-06-04T16:12:40.081Z,101086
2017-06-04T16:15:08.268Z,101082
2017-06-04T16:17:36.426Z,101093
2017-06-04T16:20:04.582Z,101091
2017-06-04T16:22:32.792Z,101104
2017-06-04T16:25:00.973Z,101096
2017-06-04T16:27:31.071Z,101105
2017-06-04T16:30:00.263Z,101099
2017-06-04T16:32:28.415Z,101095
2017-06-04T16:34:57.352Z,101109
2017-06-04T16:37:25.560Z,101096
2017-06-04T16:39:53.732Z,101106
2017-06-04T16:42:21.889Z,101104
2017-06-04T16:44:50.074Z,101108
2017-06-04T16:47:18.246Z,101100
2017-06-04T16:49:46.391Z,101107
2017-06-04T16:52:14.599Z,101102
2017-06-04T16:54:42.769Z,101103
2017-06-04T16:57:10.943Z,101096
2017-06-04T16:59:39.123Z,101093
2017-06-04T17:02:07.281Z,101090
2017-06-04T17:04:35.452Z,101090
2017-06-04T17:07:03.629Z,101088
2017-06-04T17:09:31.778Z,101085
2017-06-04T17:11:59.928Z,101093
2017-06-04T17:14:28.878Z,101100
2017-06-04T17:16:57.803Z,101103
2017-06-04T17:19:25.996Z,101093
2017-06-04T17:21:54.217Z,101104
2017-06-04T17:24:23.158Z,101115
2017-06-04T17:26:51.310Z,101115
2017-06-04T17:29:19.513Z,101111
2017-06-04T17:31:47.663Z,101122
2017-06-04T17:34:15.810Z,101116
2017-06-04T17:36:44.776Z,101120
2017-06-04T17:39:13.700Z,101136
2017-06-04T17:41:41.853Z,101133
2017-06-04T17:44:10.041Z,101143
2017-06-04T17:46:38.200Z,101133
2017-06-04T17:49:06.369Z,101140
2017-06-04T17:51:34.547Z,101134
2017-06-04T17:54:02.693Z,101139
2017-06-04T17:56:30.856Z,101149
2017-06-04T17:58:59.806Z,101144
2017-06-04T18:01:27.955Z,101145
2017-06-04T18:03:56.110Z,101142
2017-06-04T18:06:24.286Z,101150
2017-06-04T18:08:52.453Z,101144
2017-06-04T18:11:21.383Z,101158
2017-06-04T18:13:50.326Z,101156
2017-06-04T18:16:18.502Z,101161
2017-06-04T18:18:46.685Z,101164
2017-06-04T18:21:14.859Z,101165
2017-06-04T18:23:43.005Z,101171
2017-06-04T18:26:11.169Z,101166
2017-06-04T18:28:39.370Z,101165
2017-06-04T18:31:07.523Z,101178
2017-06-04T18:33:35.697Z,101184
2017-06-04T18:36:03.874Z,101177
2017-06-04T18:38:32.052Z,101183
2017-06-04T18:41:00.230Z,101185
2017-06-04T18:43:28.415Z,101192
2017-06-04T18:45:56.562Z,101191
2017-06-04T18:48:24.715Z,101194
2017-06-04T18:50:52.898Z,101201
2017-06-04T18:53:21.046Z,101201
2017-06-04T18:55:49.974Z,101207
2017-06-04T18:58:18.174Z,101203
2017-06-04T19:00:46.343Z,101208
2017-06-04T19:03:14.519Z,101214
2017-06-04T19:05:42.704Z,101210
2017-06-04T19:08:11.519Z,101216
2017-06-04T19:10:39.774Z,101216
2017-06-04T19:13:07.973Z,101222
2017-06-04T19:15:36.138Z,101216
2017-06-04T19:18:04.307Z,101222
2017-06-04T19:20:32.516Z,101216
2017-06-04T19:23:00.678Z,101204
2017-06-04T19:25:28.838Z,101204
2017-06-04T19:27:57.793Z,101214
2017-06-04T19:30:25.952Z,101223
2017-06-04T19:32:54.125Z,101229
2017-06-04T19:35:22.306Z,101238
2017-06-04T19:37:50.466Z,101229
2017-06-04T19:40:18.637Z,101239
2017-06-04T19:42:46.830Z,101246
2017-06-04T19:45:14.997Z,101240
2017-06-04T19:47:43.165Z,101239
2017-06-04T19:50:11.366Z,101244
2017-06-04T19:52:39.532Z,101238
2017-06-04T19:55:07.683Z,101243
2017-06-04T19:57:35.867Z,101244
2017-06-04T20:00:04.027Z,101248
2017-06-04T20:02:32.177Z,101256
2017-06-04T20:05:01.611Z,101270
2017-06-04T20:07:30.609Z,101260
2017-06-04T20:09:58.775Z,101264
2017-06-04T20:12:26.975Z,101269
2017-06-04T20:14:55.141Z,101266
2017-06-04T20:17:23.314Z,101257
2017-06-04T20:19:51.518Z,101269
2017-06-04T20:22:19.666Z,101268
2017-06-04T20:24:47.816Z,101261
2017-06-04T20:27:16.014Z,101263
2017-06-04T20:29:44.159Z,101265
2017-06-04T20:32:13.074Z,101269
2017-06-04T20:34:41.616Z,101269
2017-06-04T20:37:10.531Z,101283
2017-06-04T20:39:38.703Z,101276
2017-06-04T20:42:07.663Z,101274
2017-06-04T20:44:35.808Z,101277
2017-06-04T20:47:03.980Z,101270
2017-06-04T20:49:32.177Z,101268
2017-06-04T20:52:00.973Z,101270
2017-06-04T20:54:29.121Z,101273
2017-06-04T20:56:57.317Z,101278
2017-06-04T20:59:25.483Z,101269
2017-06-04T21:01:53.647Z,101279
2017-06-04T21:04:21.857Z,101278
2017-06-04T21:06:50.026Z,101275
2017-06-04T21:09:18.188Z,101270
2017-06-04T21:11:46.384Z,101268
2017-06-04T21:14:14.707Z,101270
2017-06-04T21:16:42.878Z,101267
2017-06-04T21:19:11.096Z,101267
2017-06-04T21:21:39.251Z,101276
2017-06-04T21:24:07.423Z,101266
2017-06-04T21:26:35.626Z,101266
2017-06-04T21:29:03.773Z,101264
2017-06-04T21:31:31.937Z,101263
2017-06-04T21:34:00.114Z,101262
2017-06-04T21:36:28.282Z,101268
2017-06-04T21:38:56.432Z,101273
2017-06-04T21:41:24.610Z,101269
2017-06-04T21:43:52.758Z,101262
2017-06-04T21:46:20.915Z,101266
2017-06-04T21:48:49.104Z,101273
2017-06-04T21:51:17.269Z,101261
2017-06-04T21:53:45.421Z,101261
2017-06-04T21:56:13.601Z,101263
2017-06-04T21:58:41.761Z,101269
2017-06-04T22:01:09.919Z,101262
2017-06-04T22:03:38.216Z,101269
2017-06-04T22:06:06.381Z,101265
2017-06-04T22:08:34.589Z,101275
2017-06-04T22:11:02.869Z,101276
2017-06-04T22:13:31.050Z,101270
2017-06-04T22:15:59.207Z,101268
2017-06-04T22:18:27.398Z,101269
2017-06-04T22:20:55.564Z,101269
2017-06-04T22:23:23.816Z,101267
2017-06-04T22:25:52.009Z,101268
2017-06-04T22:28:20.196Z,101278
2017-06-04T22:30:48.349Z,101272
2017-06-04T22:33:16.553Z,101275
2017-06-04T22:35:44.728Z,101276
2017-06-04T22:38:12.887Z,101272
2017-06-04T22:40:41.065Z,101267
2017-06-04T22:43:09.242Z,101268
2017-06-04T22:45:37.399Z,101266
2017-06-04T22:48:05.601Z,101263
2017-06-04T22:50:33.749Z,101262
2017-06-04T22:53:01.909Z,101259
2017-06-04T22:55:30.098Z,101264
2017-06-04T22:57:58.251Z,101256
2017-06-04T23:00:26.425Z,101254
2017-06-04T23:02:54.617Z,101253
2017-06-04T23:05:22.781Z,101259
2017-06-04T23:07:50.955Z,101264
2017-06-04T23:10:19.149Z,101264
2017-06-04T23:12:47.323Z,101270
2017-06-04T23:15:15.484Z,101267
2017-06-04T23:17:43.685Z,101270
2017-06-04T23:20:11.870Z,101281
2017-06-04T23:22:40.044Z,101282
2017-06-04T23:25:08.246Z,101275
2017-06-04T23:27:37.165Z,101288
2017-06-04T23:30:05.350Z,101282
2017-06-04T23:32:33.626Z,101289
2017-06-04T23:35:01.797Z,101282
2017-06-04T23:37:29.956Z,101291
2017-06-04T23:39:58.146Z,101288
2017-06-04T23:42:26.316Z,101288
2017-06-04T23:44:54.462Z,101290
2017-06-04T23:47:22.642Z,101292
2017-06-04T23:49:50.813Z,101290
2017-06-04T23:52:19.013Z,101292
2017-06-04T23:54:47.220Z,101288
2017-06-04T23:57:15.370Z,101293
2017-06-04T23:59:43.533Z,101288
